Time;durP1;ratioP1;P1;durP2;ratioP2;P2;SDS_P1;SDS_P2;PMS_P1;PMS_P2;Temp;Humidity;BMP_temperature;BMP_pressure;BME280_temperature;BME280_humidity;BME280_pressure;Samples;Min_cycle;Max_cycle;Signal;HPM_P1;HPM_P2
2023/06/16 19:38:43;;;;;;;70.68;12.32;;;;;;;;;;5036306;28;20415;-60
2023/06/16 19:41:09;;;;;;;51.38;10.15;;;;;;;;;;5034180;28;20037;-56
2023/06/16 19:43:34;;;;;;;76.35;14.32;;;;;;;;;;5029620;28;20063;-58
2023/06/16 19:46:00;;;;;;;74.93;14.05;;;;;;;;;;5029894;28;20037;-60
2023/06/16 19:48:25;;;;;;;69.13;13.80;;;;;;;;;;5028364;28;20025;-57
2023/06/16 19:50:51;;;;;;;61.38;10.80;;;;;;;;;;5029479;28;20283;-60
2023/06/16 19:53:16;;;;;;;91.45;14.63;;;;;;;;;;5029603;28;20104;-60
2023/06/16 19:55:41;;;;;;;70.43;12.73;;;;;;;;;;5029760;28;20108;-58
2023/06/16 19:58:07;;;;;;;65.90;12.13;;;;;;;;;;5029025;28;20349;-60
2023/06/16 20:00:32;;;;;;;58.27;12.13;;;;;;;;;;5027710;28;20924;-59
2023/06/16 20:02:57;;;;;;;60.80;12.18;;;;;;;;;;5029564;28;20260;-62
2023/06/16 20:05:23;;;;;;;99.63;15.18;;;;;;;;;;5026142;28;20025;-61
2023/06/16 20:07:50;;;;;;;56.40;11.13;;;;;;;;;;5026128;28;20095;-58
2023/06/16 20:10:15;;;;;;;97.13;15.32;;;;;;;;;;5026934;28;20495;-61
2023/06/16 20:12:41;;;;;;;68.30;13.73;;;;;;;;;;5028783;28;20021;-59
2023/06/16 20:15:06;;;;;;;63.78;12.82;;;;;;;;;;5028257;28;20032;-61
2023/06/16 20:17:33;;;;;;;74.03;15.30;;;;;;;;;;5026647;28;20083;-59
2023/06/16 20:19:58;;;;;;;56.30;12.68;;;;;;;;;;5029148;28;20220;-60
2023/06/16 20:22:23;;;;;;;106.65;16.70;;;;;;;;;;5026884;28;20029;-59
2023/06/16 20:24:48;;;;;;;58.23;12.17;;;;;;;;;;5027339;28;20020;-58
2023/06/16 20:27:14;;;;;;;87.07;15.23;;;;;;;;;;5025536;28;20272;-56
2023/06/16 20:29:39;;;;;;;60.95;12.85;;;;;;;;;;5029536;28;20267;-57
2023/06/16 20:32:04;;;;;;;65.32;12.75;;;;;;;;;;5027053;28;20048;-60
2023/06/16 20:34:30;;;;;;;67.72;13.65;;;;;;;;;;5027050;28;20021;-58
2023/06/16 20:36:55;;;;;;;52.47;12.17;;;;;;;;;;5027606;28;20565;-60
2023/06/16 20:39:21;;;;;;;101.03;17.05;;;;;;;;;;5027175;28;20657;-59
2023/06/16 20:41:46;;;;;;;64.35;14.95;;;;;;;;;;5028667;28;20207;-58
2023/06/16 20:44:12;;;;;;;60.35;13.07;;;;;;;;;;5029279;28;20049;-58
2023/06/16 20:46:38;;;;;;;72.22;13.52;;;;;;;;;;5029026;28;20032;-59
2023/06/16 20:49:04;;;;;;;69.15;16.60;;;;;;;;;;5022754;28;20021;-60
2023/06/16 20:51:29;;;;;;;94.03;15.88;;;;;;;;;;5023229;28;20029;-59
2023/06/16 20:53:57;;;;;;;53.13;12.05;;;;;;;;;;5033753;28;20104;-61
2023/06/16 20:56:23;;;;;;;101.65;15.82;;;;;;;;;;5021481;28;20037;-60
2023/06/16 20:58:48;;;;;;;59.10;12.60;;;;;;;;;;5014038;28;20032;-58
2023/06/16 21:01:18;;;;;;;74.82;12.90;;;;;;;;;;5022967;28;20367;-59
2023/06/16 21:03:43;;;;;;;72.93;12.48;;;;;;;;;;5035532;28;20029;-61
2023/06/16 21:06:09;;;;;;;86.80;12.95;;;;;;;;;;5034932;28;20095;-60
2023/06/16 21:08:34;;;;;;;56.28;11.15;;;;;;;;;;5032613;28;20033;-57
2023/06/16 21:11:00;;;;;;;54.35;10.75;;;;;;;;;;5026479;28;20048;-58
2023/06/16 21:13:27;;;;;;;84.78;13.00;;;;;;;;;;5013595;28;20120;-57
2023/06/16 21:16:00;;;;;;;73.25;11.82;;;;;;;;;;5013299;28;20033;-58
2023/06/16 21:18:29;;;;;;;80.93;12.48;;;;;;;;;;5011883;28;20033;-56
2023/06/16 21:20:55;;;;;;;38.97;8.73;;;;;;;;;;5014503;28;20128;-57
2023/06/16 21:23:20;;;;;;;70.88;11.23;;;;;;;;;;5011715;28;20096;-57
2023/06/16 21:25:45;;;;;;;44.90;8.70;;;;;;;;;;5014249;28;20666;-55
2023/06/16 21:28:10;;;;;;;48.78;8.93;;;;;;;;;;5012646;28;20299;-55
2023/06/16 21:30:38;;;;;;;50.80;8.60;;;;;;;;;;5009576;28;20033;-55
2023/06/16 21:33:03;;;;;;;40.13;8.23;;;;;;;;;;5013934;28;20855;-57
2023/06/16 21:35:29;;;;;;;58.90;9.37;;;;;;;;;;5012046;28;20035;-58
2023/06/16 21:38:01;;;;;;;41.90;8.70;;;;;;;;;;5012603;28;20314;-58
2023/06/16 21:40:26;;;;;;;81.70;11.80;;;;;;;;;;5012699;28;20028;-57
2023/06/16 21:42:51;;;;;;;46.83;8.23;;;;;;;;;;5016063;28;20446;-57
2023/06/16 21:45:17;;;;;;;57.90;9.45;;;;;;;;;;5014035;28;20140;-56
2023/06/16 21:47:42;;;;;;;49.83;8.48;;;;;;;;;;5014017;28;20867;-54
2023/06/16 21:50:07;;;;;;;39.88;7.93;;;;;;;;;;5014508;28;20527;-57
2023/06/16 21:52:33;;;;;;;99.88;13.05;;;;;;;;;;5010292;28;20642;-55
2023/06/16 21:54:59;;;;;;;38.97;7.60;;;;;;;;;;5013723;28;20513;-55
2023/06/16 21:57:25;;;;;;;87.15;11.70;;;;;;;;;;5011287;28;20049;-55
2023/06/16 21:59:51;;;;;;;50.50;8.77;;;;;;;;;;5011396;28;20013;-57
2023/06/16 22:02:16;;;;;;;56.45;9.00;;;;;;;;;;5011216;28;20025;-55
2023/06/16 22:04:41;;;;;;;46.58;8.65;;;;;;;;;;5014032;28;20104;-55
2023/06/16 22:07:07;;;;;;;53.55;8.90;;;;;;;;;;5012839;28;20319;-56
2023/06/16 22:09:34;;;;;;;87.47;12.20;;;;;;;;;;5010214;28;20548;-57
2023/06/16 22:12:00;;;;;;;53.25;8.80;;;;;;;;;;5013369;28;20415;-55
2023/06/16 22:14:27;;;;;;;101.50;13.65;;;;;;;;;;5010890;28;20049;-55
2023/06/16 22:16:56;;;;;;;47.05;8.43;;;;;;;;;;5013777;28;20048;-55
2023/06/16 22:19:27;;;;;;;83.10;12.35;;;;;;;;;;5013188;28;20017;-56
2023/06/16 22:21:52;;;;;;;52.88;9.20;;;;;;;;;;5013437;28;20578;-53
2023/06/16 22:24:18;;;;;;;50.13;8.63;;;;;;;;;;5010779;28;20043;-54
2023/06/16 22:26:43;;;;;;;66.53;10.07;;;;;;;;;;5026519;28;20056;-57
2023/06/16 22:29:09;;;;;;;66.82;9.98;;;;;;;;;;5032856;28;20032;-56
2023/06/16 22:31:37;;;;;;;113.03;14.57;;;;;;;;;;5018037;28;20057;-59
2023/06/16 22:34:05;;;;;;;55.20;9.65;;;;;;;;;;5012660;28;20351;-57
2023/06/16 22:36:31;;;;;;;91.07;11.65;;;;;;;;;;5009673;28;20121;-57
2023/06/16 22:38:57;;;;;;;49.92;9.15;;;;;;;;;;5012782;28;20049;-56
2023/06/16 22:41:22;;;;;;;84.75;12.05;;;;;;;;;;5011255;28;20036;-54
2023/06/16 22:43:47;;;;;;;48.28;9.00;;;;;;;;;;5012282;28;20035;-58
2023/06/16 22:46:12;;;;;;;57.33;9.83;;;;;;;;;;5011804;28;20033;-56
2023/06/16 22:48:40;;;;;;;60.25;9.32;;;;;;;;;;5011224;28;21304;-57
2023/06/16 22:51:05;;;;;;;44.50;8.65;;;;;;;;;;5013384;28;20229;-57
2023/06/16 22:53:30;;;;;;;91.68;13.32;;;;;;;;;;5011388;28;20506;-57
2023/06/16 22:55:56;;;;;;;71.73;11.00;;;;;;;;;;5012506;28;20346;-55
2023/06/16 22:58:21;;;;;;;38.00;8.23;;;;;;;;;;5012538;28;20367;-54
2023/06/16 23:00:46;;;;;;;46.37;8.73;;;;;;;;;;5013927;28;20268;-57
2023/06/16 23:03:11;;;;;;;55.40;9.70;;;;;;;;;;5013806;28;20340;-57
2023/06/16 23:05:37;;;;;;;99.27;13.23;;;;;;;;;;5011906;28;20487;-56
2023/06/16 23:08:02;;;;;;;51.58;9.35;;;;;;;;;;5012928;28;20934;-58
2023/06/16 23:10:27;;;;;;;76.88;11.10;;;;;;;;;;5011048;28;20170;-57
2023/06/16 23:12:52;;;;;;;46.07;8.50;;;;;;;;;;5014146;28;20021;-56
2023/06/16 23:15:18;;;;;;;55.80;9.40;;;;;;;;;;5013087;28;20267;-56
2023/06/16 23:17:43;;;;;;;58.25;10.85;;;;;;;;;;5011203;28;20556;-56
2023/06/16 23:20:08;;;;;;;62.75;9.45;;;;;;;;;;5013271;28;20434;-57
2023/06/16 23:22:34;;;;;;;97.70;13.23;;;;;;;;;;5009883;28;20463;-56
2023/06/16 23:25:00;;;;;;;50.10;9.25;;;;;;;;;;5011869;28;20017;-55
2023/06/16 23:27:25;;;;;;;65.82;11.05;;;;;;;;;;5009744;28;20129;-56
2023/06/16 23:29:51;;;;;;;59.40;11.13;;;;;;;;;;5010728;28;20624;-57
2023/06/16 23:32:17;;;;;;;74.72;13.65;;;;;;;;;;5009306;28;20144;-55
2023/06/16 23:34:43;;;;;;;61.10;10.98;;;;;;;;;;5011185;28;20380;-56
2023/06/16 23:37:08;;;;;;;60.78;10.40;;;;;;;;;;5011526;28;20653;-56
2023/06/16 23:39:34;;;;;;;111.28;15.10;;;;;;;;;;5010174;28;20018;-56
2023/06/16 23:41:59;;;;;;;57.28;8.43;;;;;;;;;;5011983;28;20037;-54
2023/06/16 23:44:25;;;;;;;50.00;9.68;;;;;;;;;;5011602;28;20029;-56
2023/06/16 23:46:50;;;;;;;93.65;13.65;;;;;;;;;;5008515;28;20049;-55
2023/06/16 23:49:15;;;;;;;45.58;10.25;;;;;;;;;;5014632;28;20052;-54
